createdAt,value
2019-02-10T00:01:00.305Z,3.3
2019-02-10T00:03:58.745Z,3.4
2019-02-10T00:06:58.832Z,3.1
2019-02-10T00:09:59.054Z,3
2019-02-10T00:13:00.125Z,3
2019-02-10T00:15:58.810Z,3
2019-02-10T00:18:59.066Z,3.2
2019-02-10T00:21:59.296Z,3.2
2019-02-10T00:24:58.622Z,3.1
2019-02-10T00:28:00.148Z,3.3
2019-02-10T00:30:59.140Z,3.4
2019-02-10T00:34:00.041Z,3.2
2019-02-10T00:36:59.137Z,3.1
2019-02-10T00:39:58.777Z,3.1
2019-02-10T00:42:59.247Z,2.9
2019-02-10T00:45:59.049Z,3.1
2019-02-10T00:48:58.943Z,3.1
2019-02-10T00:51:58.937Z,3
2019-02-10T00:54:59.543Z,3
2019-02-10T00:57:58.506Z,3.1
2019-02-10T01:00:59.894Z,3
2019-02-10T01:03:58.530Z,3.2
2019-02-10T01:06:59.198Z,3.1
2019-02-10T01:10:00.020Z,3
2019-02-10T01:12:58.586Z,3.1
2019-02-10T01:15:59.284Z,3
2019-02-10T01:18:59.217Z,3
2019-02-10T01:22:00.259Z,2.9
2019-02-10T01:24:59.224Z,3
2019-02-10T01:27:58.980Z,2.9
2019-02-10T01:30:58.723Z,2.9
2019-02-10T01:33:58.466Z,3.6
2019-02-10T01:36:59.072Z,3.6
2019-02-10T01:39:59.115Z,3.3
2019-02-10T01:42:58.555Z,3.2
2019-02-10T01:45:58.925Z,3.2
2019-02-10T01:48:59.572Z,2.8
2019-02-10T01:51:58.835Z,2.8
2019-02-10T01:54:59.096Z,3.2
2019-02-10T01:57:58.940Z,3.1
2019-02-10T02:00:58.668Z,3.3
2019-02-10T02:03:59.198Z,3.1
2019-02-10T02:06:58.509Z,3.3
2019-02-10T02:09:58.938Z,3
2019-02-10T02:12:59.904Z,3
2019-02-10T02:15:59.198Z,2.8
2019-02-10T02:18:58.500Z,2.7
2019-02-10T02:21:58.922Z,2.7
2019-02-10T02:24:59.090Z,2.8
2019-02-10T02:27:58.740Z,3.1
2019-02-10T02:30:59.560Z,3
2019-02-10T02:33:59.223Z,3.1
2019-02-10T02:37:08.621Z,2.8
2019-02-10T02:39:58.796Z,2.7
2019-02-10T02:42:58.464Z,2.8
2019-02-10T02:45:59.105Z,2.7
2019-02-10T02:48:58.492Z,3
2019-02-10T02:52:00.513Z,2.9
2019-02-10T02:54:58.538Z,2.6
2019-02-10T02:58:00.576Z,2.8
2019-02-10T03:00:58.927Z,2.7
2019-02-10T03:03:59.445Z,2.6
2019-02-10T03:06:58.646Z,2.8
2019-02-10T03:09:58.893Z,2.9
2019-02-10T03:12:58.898Z,3
2019-02-10T03:15:59.298Z,2.9
2019-02-10T03:18:59.166Z,2.9
2019-02-10T03:21:59.201Z,2.9
2019-02-10T03:24:59.635Z,2.7
2019-02-10T03:27:59.542Z,2.7
2019-02-10T03:30:59.927Z,2.5
2019-02-10T03:33:59.063Z,2.6
2019-02-10T03:36:58.630Z,2.9
2019-02-10T03:39:59.216Z,2.6
2019-02-10T03:42:59.319Z,2.6
2019-02-10T03:45:58.754Z,2.5
2019-02-10T03:48:58.721Z,2.7
2019-02-10T03:51:59.260Z,2.5
2019-02-10T03:54:58.568Z,2.4
2019-02-10T03:57:59.336Z,2.6
2019-02-10T04:00:59.987Z,2.8
2019-02-10T04:03:59.306Z,2.6
2019-02-10T04:06:58.757Z,2.6
2019-02-10T04:09:58.561Z,2.8
2019-02-10T04:12:58.965Z,2.6
2019-02-10T04:15:59.341Z,2.8
2019-02-10T04:18:58.562Z,2.5
2019-02-10T04:21:59.269Z,2.4
2019-02-10T04:24:58.845Z,2.5
2019-02-10T04:27:59.567Z,2.4
2019-02-10T04:30:59.237Z,2.4
2019-02-10T04:33:59.398Z,2.3
2019-02-10T04:36:59.124Z,2.4
2019-02-10T04:40:00.648Z,2.3
2019-02-10T04:42:58.952Z,2.2
2019-02-10T04:45:59.337Z,2.6
2019-02-10T04:48:58.832Z,2.3
2019-02-10T04:51:58.896Z,2.4
2019-02-10T04:54:58.522Z,2.5
2019-02-10T04:57:58.925Z,2.3
2019-02-10T05:00:58.419Z,2.3
2019-02-10T05:03:58.468Z,2.2
2019-02-10T05:06:58.850Z,2.2
2019-02-10T05:09:58.923Z,2.2
2019-02-10T05:12:58.979Z,2.3
2019-02-10T05:15:58.700Z,2.2
2019-02-10T05:18:58.872Z,2.4
2019-02-10T05:21:59.151Z,2.3
2019-02-10T05:25:00.659Z,2.2
2019-02-10T05:27:59.813Z,2.3
2019-02-10T05:30:58.749Z,2.2
2019-02-10T05:33:58.751Z,2.1
2019-02-10T05:36:58.936Z,2.1
2019-02-10T05:39:58.417Z,2.1
2019-02-10T05:42:58.668Z,2.2
2019-02-10T05:45:58.797Z,2.1
2019-02-10T05:48:59.005Z,2
2019-02-10T05:51:58.757Z,1.9
2019-02-10T05:54:59.378Z,1.9
2019-02-10T05:57:58.984Z,2
2019-02-10T06:01:00.449Z,2
2019-02-10T06:03:59.010Z,2
2019-02-10T06:06:58.498Z,2
2019-02-10T06:09:59.803Z,2.2
2019-02-10T06:12:58.390Z,3.8
2019-02-10T06:15:59.406Z,3.2
2019-02-10T06:18:59.050Z,3.6
2019-02-10T06:21:59.201Z,3.2
2019-02-10T06:24:58.529Z,3.9
2019-02-10T06:27:58.445Z,4
2019-02-10T06:30:58.837Z,4.1
2019-02-10T06:33:58.572Z,4.2
2019-02-10T06:36:58.534Z,3.6
2019-02-10T06:40:00.854Z,3.3
2019-02-10T06:42:59.991Z,3
2019-02-10T06:45:59.418Z,3.1
2019-02-10T06:48:59.147Z,3.4
2019-02-10T06:51:58.465Z,3.5
2019-02-10T06:54:59.211Z,3.8
2019-02-10T06:57:58.439Z,2.9
2019-02-10T07:00:58.396Z,2.9
2019-02-10T07:03:59.197Z,2.5
2019-02-10T07:07:00.344Z,2.4
2019-02-10T07:09:58.549Z,2.5
2019-02-10T07:12:58.792Z,2.4
2019-02-10T07:15:58.748Z,2.3
2019-02-10T07:18:58.586Z,2.2
2019-02-10T07:21:58.856Z,2.4
2019-02-10T07:24:58.429Z,2.2
2019-02-10T07:28:00.236Z,2.1
2019-02-10T07:30:59.084Z,2.1
2019-02-10T07:33:59.285Z,2.2
2019-02-10T07:36:58.769Z,2.2
2019-02-10T07:39:58.793Z,2.3
2019-02-10T07:42:58.833Z,2.2
2019-02-10T07:45:58.737Z,2.1
2019-02-10T07:48:58.835Z,2.3
2019-02-10T07:51:58.978Z,2.2
2019-02-10T07:54:58.832Z,2.5
2019-02-10T07:57:59.035Z,2.7
2019-02-10T08:00:58.971Z,2.3
2019-02-10T08:03:58.488Z,2.3
2019-02-10T08:06:58.893Z,2
2019-02-10T08:09:58.529Z,1.9
2019-02-10T08:13:00.368Z,1.8
2019-02-10T08:15:58.905Z,1.7
2019-02-10T08:18:58.753Z,1.7
2019-02-10T08:21:58.409Z,1.7
2019-02-10T08:25:00.496Z,1.7
2019-02-10T08:27:59.565Z,1.8
2019-02-10T08:30:58.266Z,1.9
2019-02-10T08:33:58.907Z,1.8
2019-02-10T08:36:58.340Z,1.8
2019-02-10T08:39:58.374Z,1.8
2019-02-10T08:42:58.952Z,2
2019-02-10T08:45:58.538Z,1.9
2019-02-10T08:48:58.610Z,1.8
2019-02-10T08:51:58.317Z,1.9
2019-02-10T08:54:58.522Z,1.9
2019-02-10T08:57:58.851Z,1.8
2019-02-10T09:00:58.453Z,1.8
2019-02-10T09:03:58.584Z,1.8
2019-02-10T09:06:59.734Z,1.7
2019-02-10T09:10:00.658Z,1.6
2019-02-10T09:12:59.239Z,1.7
2019-02-10T09:16:00.105Z,1.7
2019-02-10T09:18:58.552Z,1.7
2019-02-10T09:21:58.256Z,1.6
2019-02-10T09:24:58.770Z,1.8
2019-02-10T09:27:58.855Z,1.7
2019-02-10T09:31:00.164Z,1.6
2019-02-10T09:33:59.088Z,1.7
2019-02-10T09:36:58.914Z,2.2
2019-02-10T09:39:58.628Z,1.9
2019-02-10T09:42:58.569Z,2.1
2019-02-10T09:45:58.698Z,4.9
2019-02-10T09:48:59.869Z,5.4
2019-02-10T09:51:58.262Z,4.5
2019-02-10T09:54:58.649Z,4
2019-02-10T09:58:00.181Z,4.1
2019-02-10T10:00:58.574Z,3.1
2019-02-10T10:03:58.874Z,2.5
2019-02-10T10:06:58.566Z,2.3
2019-02-10T10:09:58.385Z,3
2019-02-10T10:12:58.772Z,3
2019-02-10T10:15:58.405Z,2.9
2019-02-10T10:18:58.517Z,3.2
2019-02-10T10:21:58.716Z,3.3
2019-02-10T10:25:01.124Z,3.1
2019-02-10T10:27:58.492Z,2.3
2019-02-10T10:30:58.391Z,2.8
2019-02-10T10:33:58.626Z,2.4
2019-02-10T10:36:59.159Z,2.4
2019-02-10T10:39:58.530Z,2.2
2019-02-10T10:42:59.296Z,2.4
2019-02-10T10:46:00.897Z,3.1
2019-02-10T10:48:59.916Z,3.4
2019-02-10T10:51:58.976Z,3.5
2019-02-10T10:54:59.157Z,2.9
2019-02-10T10:57:59.311Z,3.8
2019-02-10T11:00:58.963Z,2.9
2019-02-10T11:03:58.908Z,3.2
2019-02-10T11:06:59.615Z,3
2019-02-10T11:09:59.118Z,4
2019-02-10T11:13:00.268Z,5
2019-02-10T11:15:59.920Z,4.6
2019-02-10T11:18:59.286Z,3.9
2019-02-10T11:21:58.425Z,4.1
2019-02-10T11:24:59.033Z,3.7
2019-02-10T11:27:58.740Z,3.6
2019-02-10T11:30:58.994Z,3.2
2019-02-10T11:33:58.701Z,5
2019-02-10T11:36:58.362Z,4.3
2019-02-10T11:39:58.509Z,4.6
2019-02-10T11:43:00.359Z,7.6
2019-02-10T11:45:58.888Z,5.4
2019-02-10T11:48:59.025Z,4.8
2019-02-10T11:51:58.628Z,4
2019-02-10T11:54:58.246Z,3.7
2019-02-10T11:57:58.390Z,2.9
2019-02-10T12:00:58.796Z,2.7
2019-02-10T12:03:58.299Z,2.9
2019-02-10T12:06:58.448Z,4.4
2019-02-10T12:09:58.926Z,4.3
2019-02-10T12:12:58.734Z,3.7
2019-02-10T12:15:58.917Z,4.7
2019-02-10T12:18:58.830Z,3.6
2019-02-10T12:21:58.960Z,4.5
2019-02-10T12:24:58.338Z,5.2
2019-02-10T12:27:59.198Z,4.6
2019-02-10T12:30:58.407Z,6.5
2019-02-10T12:33:58.401Z,6.1
2019-02-10T12:36:58.522Z,6.5
2019-02-10T12:40:00.616Z,5.4
2019-02-10T12:42:58.690Z,6.3
2019-02-10T12:45:58.830Z,5.3
2019-02-10T12:48:58.930Z,4.3
2019-02-10T12:51:58.417Z,5.8
2019-02-10T12:54:59.010Z,4.9
2019-02-10T12:57:58.314Z,3.6
2019-02-10T13:00:58.749Z,3
2019-02-10T13:03:59.778Z,4.5
2019-02-10T13:06:59.055Z,4.6
2019-02-10T13:09:58.316Z,4
2019-02-10T13:12:58.934Z,3.1
2019-02-10T13:15:58.702Z,2.9
2019-02-10T13:18:59.386Z,3
2019-02-10T13:21:58.697Z,3.2
2019-02-10T13:24:58.485Z,3.1
2019-02-10T13:27:58.589Z,3.3
2019-02-10T13:30:59.240Z,4.4
2019-02-10T13:33:58.446Z,4
2019-02-10T13:37:00.259Z,3.2
2019-02-10T13:39:58.401Z,3.3
2019-02-10T13:42:58.492Z,4.1
2019-02-10T13:45:58.838Z,6.9
2019-02-10T13:48:58.887Z,6
2019-02-10T13:52:05.100Z,5.5
2019-02-10T13:55:00.601Z,5.3
2019-02-10T13:57:58.305Z,4.9
2019-02-10T14:00:58.627Z,6
2019-02-10T14:03:58.538Z,5.7
2019-02-10T14:06:58.601Z,4.9
2019-02-10T14:09:58.412Z,5.6
2019-02-10T14:12:58.641Z,7.2
2019-02-10T14:16:00.237Z,5.9
2019-02-10T14:18:58.491Z,5.4
2019-02-10T14:21:58.694Z,6.5
2019-02-10T14:24:58.254Z,5.5
2019-02-10T14:27:58.939Z,4.7
2019-02-10T14:30:58.653Z,4.1
2019-02-10T14:33:59.117Z,5.5
2019-02-10T14:36:58.710Z,5.3
2019-02-10T14:39:59.549Z,4.5
2019-02-10T14:42:58.988Z,5.1
2019-02-10T14:46:00.076Z,5.8
2019-02-10T14:48:59.423Z,6.3
2019-02-10T14:51:58.507Z,5.1
2019-02-10T14:55:00.010Z,6.1
2019-02-10T14:57:58.402Z,4.6
2019-02-10T15:00:58.546Z,6.9
2019-02-10T15:04:00.064Z,5.2
2019-02-10T15:06:58.690Z,4.1
2019-02-10T15:10:00.161Z,3.6
2019-02-10T15:12:58.740Z,3.8
2019-02-10T15:15:58.280Z,3.3
2019-02-10T15:18:58.479Z,2.6
2019-02-10T15:21:58.714Z,3.2
2019-02-10T15:24:58.633Z,3.1
2019-02-10T15:27:58.220Z,2.8
2019-02-10T15:30:58.550Z,4.6
2019-02-10T15:33:58.703Z,5
2019-02-10T15:36:59.214Z,4.9
2019-02-10T15:39:58.524Z,5.6
2019-02-10T15:42:58.305Z,4.6
2019-02-10T15:45:58.621Z,4.5
2019-02-10T15:49:00.221Z,4.1
2019-02-10T15:51:58.660Z,3.2
2019-02-10T15:54:59.594Z,2.8
2019-02-10T15:57:58.854Z,2.6
2019-02-10T16:00:58.450Z,3
2019-02-10T16:03:58.979Z,4.6
2019-02-10T16:06:58.398Z,5.9
2019-02-10T16:09:58.634Z,4
2019-02-10T16:12:58.573Z,3.5
2019-02-10T16:15:58.998Z,4.9
2019-02-10T16:18:58.690Z,4.5
2019-02-10T16:21:58.329Z,3.8
2019-02-10T16:24:58.842Z,4.3
2019-02-10T16:27:58.465Z,4
2019-02-10T16:30:58.224Z,3.3
2019-02-10T16:33:58.329Z,3.2
2019-02-10T16:36:59.019Z,3.9
2019-02-10T16:39:58.185Z,3.4
2019-02-10T16:42:59.091Z,3.4
2019-02-10T16:45:58.840Z,3.7
2019-02-10T16:48:58.809Z,4.3
2019-02-10T16:51:58.917Z,3.1
2019-02-10T16:54:58.408Z,3
2019-02-10T16:57:58.932Z,3.3
2019-02-10T17:00:58.725Z,2.7
2019-02-10T17:04:00.294Z,2.3
2019-02-10T17:06:58.498Z,2.7
2019-02-10T17:09:58.449Z,2.5
2019-02-10T17:12:58.590Z,3
2019-02-10T17:16:05.691Z,3.2
2019-02-10T17:18:58.278Z,3.3
2019-02-10T17:21:58.556Z,2.8
2019-02-10T17:25:00.417Z,2.6
2019-02-10T17:27:58.600Z,3.9
2019-02-10T17:30:58.329Z,3.9
2019-02-10T17:33:58.611Z,3.5
2019-02-10T17:36:58.450Z,3
2019-02-10T17:39:59.013Z,3.7
2019-02-10T17:43:00.205Z,3.3
2019-02-10T17:46:00.221Z,2.5
2019-02-10T17:48:58.948Z,3.2
2019-02-10T17:51:59.470Z,4.8
2019-02-10T17:54:58.883Z,3.7
2019-02-10T17:57:58.986Z,2.9
2019-02-10T18:00:58.921Z,2.4
2019-02-10T18:03:58.951Z,2.3
2019-02-10T18:06:58.292Z,2.5
2019-02-10T18:09:58.689Z,2.6
2019-02-10T18:12:58.911Z,2.1
2019-02-10T18:15:59.448Z,2.7
2019-02-10T18:19:00.018Z,2
2019-02-10T18:21:58.475Z,2.1
2019-02-10T18:24:58.592Z,1.9
2019-02-10T18:27:59.539Z,2
2019-02-10T18:30:58.203Z,1.6
2019-02-10T18:33:58.438Z,2.1
2019-02-10T18:36:58.019Z,1.6
2019-02-10T18:40:00.136Z,1.5
2019-02-10T18:42:59.066Z,1.9
2019-02-10T18:45:58.437Z,1.9
2019-02-10T18:48:58.321Z,1.7
2019-02-10T18:51:58.601Z,2.1
2019-02-10T18:54:58.126Z,1.8
2019-02-10T18:57:58.433Z,2.1
2019-02-10T19:00:58.177Z,2.2
2019-02-10T19:03:58.672Z,1.8
2019-02-10T19:06:58.494Z,1.9
2019-02-10T19:09:58.456Z,1.5
2019-02-10T19:12:58.160Z,1.9
2019-02-10T19:15:58.138Z,1.6
2019-02-10T19:18:58.296Z,1.3
2019-02-10T19:21:59.130Z,1.3
2019-02-10T19:24:58.589Z,1.2
2019-02-10T19:27:58.620Z,1.4
2019-02-10T19:30:58.657Z,1.5
2019-02-10T19:33:58.562Z,1.3
2019-02-10T19:36:58.157Z,1.5
2019-02-10T19:39:59.477Z,1.2
2019-02-10T19:42:58.158Z,1.4
2019-02-10T19:45:58.546Z,1.3
2019-02-10T19:48:58.321Z,1.2
2019-02-10T20:37:33.714Z,1.2
2019-02-10T20:40:33.160Z,1.6
2019-02-10T20:43:33.566Z,1.9
2019-02-10T20:51:58.375Z,1.3
2019-02-10T20:54:57.461Z,2.5
2019-02-10T20:57:57.308Z,1.8
2019-02-10T21:00:57.363Z,1.5
2019-02-10T21:03:57.118Z,1.5
2019-02-10T21:06:57.329Z,2.6
2019-02-10T21:09:57.859Z,2.4
2019-02-10T21:12:57.219Z,1.9
2019-02-10T21:15:57.477Z,1.7
2019-02-10T21:18:57.569Z,1.6
2019-02-10T21:21:56.928Z,1.3
2019-02-10T21:24:57.193Z,1.3
2019-02-10T21:27:57.642Z,1.2
2019-02-10T21:30:58.976Z,1.3
2019-02-10T21:33:57.237Z,1.6
2019-02-10T21:36:57.565Z,1.9
2019-02-10T21:39:57.829Z,2
2019-02-10T21:42:58.007Z,1.6
2019-02-10T21:45:57.377Z,1.3
2019-02-10T21:48:57.527Z,1.3
2019-02-10T21:51:57.328Z,1.1
2019-02-10T21:54:57.874Z,1.5
2019-02-10T21:57:56.979Z,1.5
2019-02-10T22:00:57.625Z,1.2
2019-02-10T22:03:57.181Z,1.1
2019-02-10T22:06:57.811Z,1.1
2019-02-10T22:09:57.194Z,1
2019-02-10T22:12:57.451Z,1
2019-02-10T22:15:57.380Z,1
2019-02-10T22:18:58.888Z,1
2019-02-10T22:21:57.030Z,1.3
2019-02-10T22:24:57.398Z,1.3
2019-02-10T22:27:57.018Z,1.2
2019-02-10T22:30:56.972Z,1.2
2019-02-10T22:33:57.120Z,1
2019-02-10T22:36:57.126Z,1
2019-02-10T22:39:57.404Z,1
2019-02-10T22:42:57.742Z,1.1
2019-02-10T22:45:57.124Z,1.1
2019-02-10T22:48:57.413Z,1.2
2019-02-10T22:51:57.946Z,1.1
2019-02-10T22:54:58.040Z,1
2019-02-10T22:57:56.882Z,1
2019-02-10T23:00:56.999Z,0.9
2019-02-10T23:03:57.322Z,0.9
2019-02-10T23:06:57.585Z,0.9
2019-02-10T23:09:58.867Z,1
2019-02-10T23:12:57.680Z,1.1
2019-02-10T23:15:58.546Z,1.1
2019-02-10T23:18:57.870Z,1.1
2019-02-10T23:21:58.938Z,0.9
2019-02-10T23:24:57.135Z,1
2019-02-10T23:27:58.215Z,0.9
2019-02-10T23:30:57.159Z,0.9
2019-02-10T23:33:56.865Z,0.9
2019-02-10T23:36:57.372Z,0.9
2019-02-10T23:39:56.948Z,0.8
2019-02-10T23:43:02.856Z,0.9
2019-02-10T23:45:57.466Z,0.9
2019-02-10T23:48:57.338Z,0.9
2019-02-10T23:51:57.653Z,0.8
2019-02-10T23:54:57.255Z,0.9
2019-02-10T23:57:57.084Z,0.9
